TimeEST,TemperatureF,Dew PointF,Humidity,Sea Level PressureIn,VisibilityMPH,Wind Direction,Wind SpeedMPH,Gust SpeedMPH,PrecipitationIn,Events,Conditions,WindDirDegrees,DateUTC
12:13 AM,19.0,13.8,80,29.93,5.0,West,9.2,-,N/A,Snow,Light Snow,270,2014-02-26 05:13:00
12:33 AM,19.0,14.0,81,29.93,5.0,West,4.6,-,N/A,Snow,Light Snow,270,2014-02-26 05:33:00
12:53 AM,18.5,14.7,85,29.92,3.0,West,5.8,-,N/A,Snow,Light Snow,280,2014-02-26 05:53:00
1:13 AM,18.3,14.9,86,29.92,3.0,WSW,4.6,-,N/A,Snow,Light Snow,250,2014-02-26 06:13:00
1:33 AM,18.7,15.1,86,29.92,3.0,West,9.2,16.1,N/A,Snow,Light Snow,260,2014-02-26 06:33:00
1:53 AM,19.0,14.7,83,29.92,1.5,West,12.7,-,N/A,Snow,Light Snow,280,2014-02-26 06:53:00
2:13 AM,18.0,14.0,84,29.92,3.0,WNW,12.7,-,N/A,Snow,Light Snow,290,2014-02-26 07:13:00
2:33 AM,16.0,12.2,85,29.93,0.5,NW,11.5,21.9,N/A,Snow,Snow,320,2014-02-26 07:33:00
2:53 AM,15.4,11.3,84,29.93,1.2,NW,9.2,18.4,N/A,Snow,Light Snow,310,2014-02-26 07:53:00
3:13 AM,14.9,11.3,86,29.93,1.5,NW,6.9,-,N/A,Snow,Light Snow,310,2014-02-26 08:13:00
3:33 AM,14.2,9.9,83,29.94,2.0,NW,9.2,-,N/A,Snow,Light Snow,310,2014-02-26 08:33:00
3:53 AM,13.8,9.5,83,29.94,2.0,NW,5.8,-,N/A,Snow,Light Snow,310,2014-02-26 08:53:00
4:13 AM,13.6,9.5,84,29.93,1.5,NW,5.8,-,N/A,Snow,Light Snow,310,2014-02-26 09:13:00
4:33 AM,13.1,9.1,84,29.94,1.2,NW,5.8,-,N/A,Snow,Light Snow,310,2014-02-26 09:33:00
4:53 AM,12.7,8.6,84,29.94,1.2,NW,10.4,17.3,N/A,Snow,Light Snow,310,2014-02-26 09:53:00
5:13 AM,11.8,6.1,78,29.95,3.0,NW,10.4,21.9,N/A,Snow,Light Snow,310,2014-02-26 10:13:00
5:33 AM,11.3,5.0,76,29.96,5.0,WNW,9.2,-,N/A,,Haze,290,2014-02-26 10:33:00
5:53 AM,10.9,5.0,77,29.98,4.0,WNW,8.1,-,N/A,Snow,Light Snow,300,2014-02-26 10:53:00
6:13 AM,10.9,5.5,79,29.98,4.0,WNW,8.1,-,N/A,Snow,Light Snow,290,2014-02-26 11:13:00
6:33 AM,10.9,6.4,82,29.98,2.5,WNW,4.6,-,N/A,Snow,Light Snow,290,2014-02-26 11:33:00
6:53 AM,10.8,6.3,82,29.99,3.0,WNW,8.1,-,N/A,Snow,Light Snow,300,2014-02-26 11:53:00
7:13 AM,10.9,6.6,83,29.99,1.2,WNW,6.9,-,N/A,Snow,Light Snow,290,2014-02-26 12:13:00
7:33 AM,10.6,6.4,83,30.00,3.0,WNW,8.1,-,N/A,Snow,Light Snow,290,2014-02-26 12:33:00
7:53 AM,10.9,5.9,80,30.00,1.8,WNW,8.1,-,N/A,Snow,Light Snow,290,2014-02-26 12:53:00
8:13 AM,11.3,6.8,82,30.01,0.8,WNW,8.1,-,N/A,Snow,Light Snow,290,2014-02-26 13:13:00
8:33 AM,10.9,6.3,81,30.03,1.5,West,12.7,-,N/A,Snow,Light Snow,280,2014-02-26 13:33:00
8:53 AM,12.0,1.8,64,30.04,4.0,WNW,16.1,20.7,N/A,Snow,Light Snow,290,2014-02-26 13:53:00
9:13 AM,11.3,0.9,63,30.04,4.0,WNW,10.4,19.6,N/A,,Haze,300,2014-02-26 14:13:00
9:33 AM,12.2,1.9,64,30.05,7.0,WNW,11.5,18.4,N/A,,Mostly Cloudy,290,2014-02-26 14:33:00
9:53 AM,11.5,0.5,61,30.05,5.0,WNW,12.7,18.4,N/A,Snow,Light Snow,290,2014-02-26 14:53:00
10:13 AM,12.9,0.7,58,30.05,10.0,WNW,17.3,20.7,N/A,,Mostly Cloudy,290,2014-02-26 15:13:00
10:33 AM,12.0,-0.2,58,30.05,10.0,WNW,12.7,20.7,N/A,,Overcast,300,2014-02-26 15:33:00
10:53 AM,12.0,0.3,59,30.05,10.0,NNW,8.1,16.1,N/A,,Overcast,330,2014-02-26 15:53:00
11:13 AM,11.8,4.3,72,30.04,3.0,WNW,6.9,-,N/A,Snow,Light Snow,300,2014-02-26 16:13:00
11:33 AM,12.0,3.4,68,30.03,7.0,NNW,8.1,-,N/A,,Overcast,330,2014-02-26 16:33:00
11:53 AM,12.4,4.1,69,30.03,4.0,WNW,9.2,-,N/A,Snow,Light Snow,300,2014-02-26 16:53:00
12:13 PM,13.3,2.3,62,30.01,3.0,West,10.4,-,N/A,Snow,Light Snow,280,2014-02-26 17:13:00
12:33 PM,13.3,2.5,62,30.00,7.0,West,9.2,-,N/A,,Overcast,260,2014-02-26 17:33:00
12:53 PM,14.0,-2.9,47,29.99,10.0,West,10.4,-,N/A,,Mostly Cloudy,270,2014-02-26 17:53:00
1:13 PM,13.8,-2.4,49,29.98,10.0,West,13.8,18.4,N/A,,Overcast,280,2014-02-26 18:13:00
1:33 PM,14.5,-0.6,51,29.97,10.0,West,12.7,18.4,N/A,,Mostly Cloudy,260,2014-02-26 18:33:00
1:53 PM,15.4,-3.1,44,29.95,10.0,WSW,11.5,16.1,N/A,,Scattered Clouds,250,2014-02-26 18:53:00
2:13 PM,14.9,-2.9,45,29.94,10.0,West,12.7,17.3,N/A,,Scattered Clouds,280,2014-02-26 19:13:00
2:33 PM,15.6,-3.8,42,29.93,10.0,WSW,8.1,17.3,N/A,,Mostly Cloudy,250,2014-02-26 19:33:00
2:53 PM,16.0,-2.7,44,29.92,10.0,West,11.5,-,N/A,,Scattered Clouds,270,2014-02-26 19:53:00
3:13 PM,16.2,-2.2,44,29.92,10.0,West,8.1,16.1,N/A,,Scattered Clouds,260,2014-02-26 20:13:00
3:33 PM,16.5,-1.8,44,29.91,10.0,WSW,10.4,-,N/A,,Mostly Cloudy,240,2014-02-26 20:33:00
3:53 PM,15.3,-3.1,44,29.90,10.0,WSW,6.9,-,N/A,,Mostly Cloudy,240,2014-02-26 20:53:00
4:13 PM,15.4,-1.5,47,29.89,10.0,WSW,8.1,-,N/A,,Mostly Cloudy,250,2014-02-26 21:13:00
4:33 PM,15.1,-1.5,48,29.87,10.0,WSW,8.1,-,N/A,,Mostly Cloudy,250,2014-02-26 21:33:00
4:53 PM,15.4,-0.8,49,29.86,10.0,WSW,10.4,16.1,N/A,,Scattered Clouds,250,2014-02-26 21:53:00
5:13 PM,15.3,-0.4,50,29.85,10.0,WSW,9.2,18.4,N/A,,Scattered Clouds,250,2014-02-26 22:13:00
5:33 PM,15.4,-0.4,50,29.85,10.0,WSW,8.1,-,N/A,,Scattered Clouds,250,2014-02-26 22:33:00
5:53 PM,14.7,0.3,53,29.84,10.0,WSW,4.6,-,N/A,,Scattered Clouds,250,2014-02-26 22:53:00
6:13 PM,14.0,-0.2,53,29.84,10.0,West,6.9,-,N/A,,Scattered Clouds,260,2014-02-26 23:13:00
6:33 PM,13.8,-0.0,54,29.83,10.0,SW,6.9,-,N/A,,Clear,230,2014-02-26 23:33:00
6:53 PM,13.1,-0.0,56,29.82,10.0,WSW,6.9,-,N/A,,Clear,250,2014-02-26 23:53:00
7:13 PM,12.2,-0.4,57,29.82,10.0,WSW,4.6,-,N/A,,Clear,250,2014-02-27 00:13:00
7:33 PM,10.0,-0.2,63,29.81,10.0,Calm,Calm,-,N/A,,Scattered Clouds,0,2014-02-27 00:33:00
7:53 PM,10.0,-0.4,63,29.80,10.0,Calm,Calm,-,N/A,,Scattered Clouds,0,2014-02-27 00:53:00
8:13 PM,9.0,-0.2,66,29.79,10.0,Calm,Calm,-,N/A,,Scattered Clouds,0,2014-02-27 01:13:00
8:33 PM,9.1,0.1,67,29.77,10.0,Calm,Calm,-,N/A,,Scattered Clouds,0,2014-02-27 01:33:00
8:53 PM,10.6,0.7,64,29.76,10.0,Calm,Calm,-,N/A,,Scattered Clouds,0,2014-02-27 01:53:00
9:13 PM,11.1,0.7,63,29.75,10.0,Calm,Calm,-,N/A,,Scattered Clouds,0,2014-02-27 02:13:00
9:33 PM,12.2,1.2,61,29.75,10.0,Calm,Calm,-,N/A,,Scattered Clouds,0,2014-02-27 02:33:00
9:53 PM,12.7,1.9,62,29.75,10.0,Calm,Calm,-,N/A,,Mostly Cloudy,0,2014-02-27 02:53:00
10:13 PM,12.9,2.3,63,29.75,10.0,SW,3.5,-,N/A,,Overcast,230,2014-02-27 03:13:00
10:33 PM,13.8,2.7,61,29.74,10.0,SW,4.6,-,N/A,,Overcast,220,2014-02-27 03:33:00
10:53 PM,14.2,2.8,61,29.71,10.0,SW,5.8,-,N/A,,Mostly Cloudy,220,2014-02-27 03:53:00
11:13 PM,14.7,3.0,60,29.71,10.0,WSW,6.9,-,N/A,,Clear,240,2014-02-27 04:13:00
11:34 PM,15.1,2.8,58,29.68,10.0,SW,9.2,-,N/A,,Scattered Clouds,230,2014-02-27 04:34:00
11:53 PM,15.6,2.3,56,29.68,10.0,WSW,8.1,18.4,N/A,,Mostly Cloudy,240,2014-02-27 04:53:00